Time;durP1;ratioP1;P1;durP2;ratioP2;P2;SDS_P1;SDS_P2;PMS_P1;PMS_P2;Temp;Humidity;BMP_temperature;BMP_pressure;BME280_temperature;BME280_humidity;BME280_pressure;Samples;Min_cycle;Max_cycle;Signal;HPM_P1;HPM_P2
2021/10/12 00:00:04;;;;;;;4.27;1.03;;;12.50;99.90;;;;;;4900522;29;20199;-84
2021/10/12 00:02:32;;;;;;;6.57;1.43;;;12.50;99.90;;;;;;4900906;29;20218;-84
2021/10/12 00:04:59;;;;;;;6.00;1.40;;;12.50;99.90;;;;;;4900434;29;20211;-87
2021/10/12 00:07:26;;;;;;;4.67;1.10;;;12.50;99.90;;;;;;4899824;29;20195;-83
2021/10/12 00:09:53;;;;;;;7.80;1.30;;;12.40;99.90;;;;;;4900543;29;20219;-83
2021/10/12 00:12:20;;;;;;;5.17;1.10;;;12.40;99.90;;;;;;4900144;29;20238;-84
2021/10/12 00:14:47;;;;;;;4.67;1.10;;;12.30;99.90;;;;;;4900332;29;20227;-83
2021/10/12 00:17:13;;;;;;;2.13;0.80;;;12.30;99.90;;;;;;4900541;29;20191;-83
2021/10/12 00:19:41;;;;;;;5.53;1.30;;;12.30;99.90;;;;;;4900502;29;20210;-82
2021/10/12 00:22:08;;;;;;;2.50;0.90;;;12.30;99.90;;;;;;4899832;29;20207;-82
2021/10/12 00:24:35;;;;;;;3.93;1.00;;;12.30;99.90;;;;;;4900244;29;20211;-86
2021/10/12 00:27:02;;;;;;;5.53;1.30;;;12.30;99.90;;;;;;4900088;29;20199;-89
2021/10/12 00:29:29;;;;;;;4.17;1.20;;;12.20;99.90;;;;;;4900167;29;20301;-88
2021/10/12 00:31:56;;;;;;;5.03;1.30;;;12.20;99.90;;;;;;4900393;29;20215;-87
2021/10/12 00:34:22;;;;;;;6.90;1.53;;;12.20;99.90;;;;;;4899723;29;20239;-87
2021/10/12 00:36:50;;;;;;;7.90;1.63;;;12.20;99.90;;;;;;4900258;29;20192;-83
2021/10/12 00:39:17;;;;;;;9.70;1.63;;;12.30;99.90;;;;;;4900486;29;20218;-86
2021/10/12 00:41:44;;;;;;;7.33;1.60;;;12.40;99.90;;;;;;4900663;29;20231;-84
2021/10/12 00:44:11;;;;;;;7.87;1.40;;;12.40;99.90;;;;;;4904398;29;20232;-86
2021/10/12 00:46:38;;;;;;;5.83;1.30;;;12.50;99.90;;;;;;4919263;29;20214;-88
2021/10/12 00:49:05;;;;;;;4.53;1.10;;;12.50;99.90;;;;;;4918999;29;20205;-87
2021/10/12 00:51:32;;;;;;;8.07;1.23;;;12.50;99.90;;;;;;4919290;29;20207;-89
2021/10/12 00:54:01;;;;;;;5.00;1.20;;;12.40;99.90;;;;;;4918966;29;20210;-85
2021/10/12 00:56:28;;;;;;;7.27;1.00;;;12.30;99.90;;;;;;4922580;29;20237;-84
2021/10/12 00:58:54;;;;;;;6.17;1.00;;;12.30;99.90;;;;;;4922810;29;20210;-85
2021/10/12 01:01:21;;;;;;;5.47;1.90;;;12.30;99.90;;;;;;4923006;29;20269;-87
2021/10/12 01:03:48;;;;;;;3.50;1.10;;;12.40;99.90;;;;;;4922387;29;20195;-85
2021/10/12 01:06:16;;;;;;;10.67;1.37;;;12.40;99.90;;;;;;4910900;29;20211;-88
2021/10/12 01:08:42;;;;;;;3.60;1.13;;;12.40;99.90;;;;;;4903647;29;20679;-86
2021/10/12 01:11:12;;;;;;;6.10;1.40;;;12.50;99.90;;;;;;4903981;29;20192;-86
2021/10/12 01:13:39;;;;;;;8.53;1.73;;;12.50;99.90;;;;;;4915436;29;20207;-85
2021/10/12 01:16:06;;;;;;;5.10;1.20;;;12.60;99.90;;;;;;4922371;29;20219;-85
2021/10/12 01:18:34;;;;;;;5.67;1.57;;;12.50;99.90;;;;;;4922449;29;20219;-82
2021/10/12 01:21:02;;;;;;;4.70;1.20;;;12.60;99.90;;;;;;4919255;29;20215;-85
2021/10/12 01:23:29;;;;;;;3.63;1.10;;;12.60;99.90;;;;;;4903057;29;20238;-82
2021/10/12 01:25:56;;;;;;;3.03;1.57;;;12.50;99.90;;;;;;4903230;29;20215;-84
2021/10/12 01:28:23;;;;;;;5.07;1.10;;;12.50;99.90;;;;;;4903648;29;20199;-88
2021/10/12 01:30:51;;;;;;;5.23;1.37;;;12.50;99.90;;;;;;4902794;29;20514;-82
2021/10/12 01:33:18;;;;;;;4.40;1.33;;;12.50;99.90;;;;;;4903467;29;20204;-83
2021/10/12 01:35:45;;;;;;;4.50;1.10;;;12.40;99.90;;;;;;4903069;29;20242;-87
2021/10/12 01:38:13;;;;;;;6.60;1.50;;;12.40;99.90;;;;;;4903024;29;20215;-86
2021/10/12 01:40:40;;;;;;;7.80;1.73;;;12.40;99.90;;;;;;4903599;29;20200;-85
2021/10/12 01:43:06;;;;;;;6.30;2.13;;;12.40;99.90;;;;;;4903237;29;20271;-86
2021/10/12 01:45:37;;;;;;;5.10;1.50;;;12.40;99.90;;;;;;4903224;29;20608;-87
2021/10/12 01:48:05;;;;;;;6.37;1.53;;;12.40;99.90;;;;;;4903217;29;20233;-87
2021/10/12 01:50:31;;;;;;;5.87;1.87;;;12.40;99.90;;;;;;4920228;29;20215;-83
2021/10/12 01:52:58;;;;;;;8.03;1.67;;;12.40;99.90;;;;;;4921782;29;20199;-83
2021/10/12 01:55:26;;;;;;;5.43;1.40;;;12.40;99.90;;;;;;4921687;29;20223;-84
2021/10/12 01:57:53;;;;;;;5.53;2.37;;;12.50;99.90;;;;;;4921814;29;20608;-88
2021/10/12 02:00:20;;;;;;;4.90;1.50;;;12.50;99.90;;;;;;4921815;29;20484;-85
2021/10/12 02:02:47;;;;;;;6.00;1.73;;;12.50;99.90;;;;;;4921519;29;20206;-89
2021/10/12 02:05:14;;;;;;;6.07;1.80;;;12.50;99.90;;;;;;4921489;29;20210;-90
2021/10/12 02:07:41;;;;;;;5.30;1.60;;;12.60;99.90;;;;;;4907187;29;20235;-87
2021/10/12 02:10:09;;;;;;;5.67;2.03;;;12.70;99.90;;;;;;4902883;29;20203;-84
2021/10/12 02:12:37;;;;;;;6.03;2.57;;;12.70;99.90;;;;;;4901922;29;20215;-85
2021/10/12 02:15:05;;;;;;;6.20;1.90;;;12.70;99.90;;;;;;4908681;29;20226;-83
2021/10/12 02:17:32;;;;;;;8.77;2.17;;;12.70;99.90;;;;;;4922015;29;20202;-87
2021/10/12 02:19:58;;;;;;;7.47;2.67;;;12.80;99.90;;;;;;4920984;29;20206;-86
2021/10/12 02:22:26;;;;;;;12.40;2.50;;;12.80;99.90;;;;;;4922009;29;20207;-87
2021/10/12 02:24:53;;;;;;;5.40;2.10;;;12.80;99.90;;;;;;4904859;29;20290;-87
2021/10/12 02:27:19;;;;;;;8.33;2.33;;;12.80;99.90;;;;;;4902494;29;20210;-85
2021/10/12 02:29:48;;;;;;;6.80;2.20;;;12.80;99.90;;;;;;4902807;29;20221;-90
2021/10/12 02:32:15;;;;;;;7.97;2.40;;;12.80;99.90;;;;;;4908140;29;20238;-89
2021/10/12 02:34:42;;;;;;;6.57;2.80;;;12.80;99.90;;;;;;4921374;29;20230;-90
2021/10/12 02:37:09;;;;;;;12.23;3.27;;;12.80;99.90;;;;;;4921590;29;20611;-87
2021/10/12 02:39:36;;;;;;;9.43;2.20;;;12.80;99.90;;;;;;4917553;29;20226;-85
2021/10/12 02:42:04;;;;;;;9.30;2.50;;;12.80;99.90;;;;;;4904748;29;20207;-85
2021/10/12 02:44:31;;;;;;;6.57;2.80;;;12.90;99.90;;;;;;4902509;29;20200;-84
2021/10/12 02:46:59;;;;;;;9.20;2.67;;;12.90;99.90;;;;;;4902261;29;20203;-82
2021/10/12 02:49:26;;;;;;;6.20;2.63;;;13.00;99.90;;;;;;4901852;29;20204;-85
2021/10/12 02:51:53;;;;;;;9.53;2.50;;;13.00;99.90;;;;;;4916748;29;20211;-85
2021/10/12 02:54:19;;;;;;;11.10;2.53;;;13.00;99.90;;;;;;4920746;29;20210;-83
2021/10/12 02:56:46;;;;;;;10.93;2.67;;;13.00;99.90;;;;;;4905217;29;20657;-87
2021/10/12 02:59:13;;;;;;;7.43;2.63;;;13.00;99.90;;;;;;4902014;29;20323;-89
2021/10/12 03:01:40;;;;;;;6.73;2.03;;;13.10;99.90;;;;;;4901624;29;20230;-86
2021/10/12 03:04:08;;;;;;;7.03;2.07;;;13.20;99.90;;;;;;4901904;29;20203;-87
2021/10/12 03:06:35;;;;;;;10.53;2.03;;;13.30;99.90;;;;;;4902159;29;20199;-88
2021/10/12 03:09:02;;;;;;;8.27;2.10;;;13.20;99.90;;;;;;4902334;29;20256;-86
2021/10/12 03:11:29;;;;;;;5.47;1.80;;;13.20;99.90;;;;;;4901578;29;20207;-90
2021/10/12 03:13:56;;;;;;;11.50;2.33;;;13.20;99.90;;;;;;4901766;29;20280;-87
2021/10/12 03:16:23;;;;;;;9.03;2.17;;;13.10;99.90;;;;;;4919701;29;20245;-89
2021/10/12 03:18:50;;;;;;;7.63;2.00;;;13.10;99.90;;;;;;4919980;29;20211;-88
2021/10/12 03:21:19;;;;;;;6.20;1.83;;;13.10;99.90;;;;;;4920694;29;20221;-88
2021/10/12 03:23:45;;;;;;;9.53;2.13;;;13.00;99.90;;;;;;4914769;29;20218;-86
2021/10/12 03:26:12;;;;;;;6.63;2.07;;;13.00;99.90;;;;;;4901533;29;20210;-84
2021/10/12 03:28:39;;;;;;;9.77;2.10;;;12.90;99.90;;;;;;4901400;29;20195;-86
2021/10/12 03:31:06;;;;;;;8.37;2.10;;;12.90;99.90;;;;;;4901736;29;20215;-87
2021/10/12 03:33:33;;;;;;;8.57;2.40;;;12.90;99.90;;;;;;4901879;29;20203;-87
2021/10/12 03:36:11;;;;;;;8.00;2.20;;;12.80;99.90;;;;;;4903225;29;20661;-87
2021/10/12 03:38:39;;;;;;;11.03;2.67;;;12.90;99.90;;;;;;4902188;29;20267;-87
2021/10/12 03:41:06;;;;;;;11.43;2.97;;;12.90;99.90;;;;;;4902397;29;20222;-89
2021/10/12 03:43:33;;;;;;;10.60;2.70;;;12.90;99.90;;;;;;4901550;29;20202;-88
2021/10/12 03:46:00;;;;;;;10.77;2.60;;;12.90;99.90;;;;;;4900800;29;20210;-84
2021/10/12 03:48:27;;;;;;;10.67;3.27;;;12.90;99.90;;;;;;4901459;29;20259;-87
2021/10/12 03:50:54;;;;;;;10.80;2.43;;;12.90;99.90;;;;;;4919304;29;20218;-89
2021/10/12 03:53:21;;;;;;;13.43;3.03;;;12.90;99.90;;;;;;4919780;29;20198;-88
2021/10/12 03:55:49;;;;;;;20.27;4.27;;;12.90;99.90;;;;;;4920063;29;20225;-89
2021/10/12 03:58:16;;;;;;;10.77;2.60;;;12.90;99.90;;;;;;4920146;29;20206;-88
2021/10/12 04:00:42;;;;;;;15.87;3.43;;;13.00;99.90;;;;;;4920326;29;20214;-89
2021/10/12 04:03:09;;;;;;;12.60;3.73;;;13.10;99.90;;;;;;4920309;29;20284;-89
2021/10/12 04:05:36;;;;;;;16.00;3.30;;;13.20;99.90;;;;;;4919978;29;20199;-89
2021/10/12 04:08:03;;;;;;;13.60;3.40;;;13.20;99.90;;;;;;4910028;29;20235;-89
2021/10/12 04:10:30;;;;;;;12.67;2.67;;;13.20;99.90;;;;;;4907263;29;20206;-88
2021/10/12 04:12:58;;;;;;;11.83;2.93;;;13.20;99.90;;;;;;4906712;29;20549;-86
2021/10/12 04:15:25;;;;;;;14.67;4.37;;;13.20;99.90;;;;;;4901143;29;20704;-84
2021/10/12 04:17:52;;;;;;;14.60;2.97;;;13.10;99.90;;;;;;4900672;29;20533;-86
2021/10/12 04:20:23;;;;;;;11.37;2.60;;;13.10;99.90;;;;;;4900415;29;20230;-83
2021/10/12 04:22:50;;;;;;;11.33;3.63;;;13.20;99.90;;;;;;4900680;29;20210;-84
2021/10/12 04:25:17;;;;;;;17.83;3.00;;;13.20;99.90;;;;;;4901425;29;20209;-87
2021/10/12 04:27:44;;;;;;;14.77;2.80;;;13.20;99.90;;;;;;4900790;29;20548;-88
2021/10/12 04:30:12;;;;;;;12.47;2.80;;;13.20;99.90;;;;;;4903235;29;20226;-89
2021/10/12 04:32:39;;;;;;;13.20;2.70;;;13.20;99.90;;;;;;4917463;29;20206;-87
2021/10/12 04:35:07;;;;;;;8.90;2.40;;;13.20;99.90;;;;;;4923434;29;20238;-86
2021/10/12 04:37:33;;;;;;;13.97;3.27;;;13.30;99.90;;;;;;4923659;29;20238;-88
2021/10/12 04:40:00;;;;;;;14.67;3.00;;;13.30;99.90;;;;;;4923267;29;20207;-88
2021/10/12 04:42:27;;;;;;;15.40;3.17;;;13.40;99.90;;;;;;4923302;29;20217;-90
2021/10/12 04:44:54;;;;;;;13.90;2.77;;;13.40;99.90;;;;;;4923707;29;20199;-88
2021/10/12 04:47:22;;;;;;;14.03;2.47;;;13.40;99.90;;;;;;4912446;29;20231;-89
2021/10/12 04:49:50;;;;;;;11.67;3.07;;;13.50;99.90;;;;;;4905404;29;20203;-88
2021/10/12 04:52:17;;;;;;;16.60;2.70;;;13.50;99.90;;;;;;4904868;29;20203;-90
2021/10/12 04:54:44;;;;;;;14.13;3.00;;;13.60;99.90;;;;;;4922725;29;20207;-89
2021/10/12 04:57:11;;;;;;;15.27;3.10;;;13.60;99.90;;;;;;4924033;29;20225;-87
2021/10/12 04:59:37;;;;;;;13.50;2.70;;;13.70;99.90;;;;;;4924897;29;20207;-87
2021/10/12 05:02:04;;;;;;;16.30;3.10;;;13.70;99.90;;;;;;4923792;29;20199;-93
2021/10/12 05:04:32;;;;;;;9.20;2.20;;;13.80;99.90;;;;;;4923176;29;20207;-89
2021/10/12 05:06:59;;;;;;;8.38;2.45;;;13.80;99.90;;;;;;4922841;29;20207;-84
2021/10/12 05:09:26;;;;;;;13.17;2.47;;;13.70;99.90;;;;;;4922503;29;20226;-92
2021/10/12 05:11:53;;;;;;;15.40;2.83;;;13.90;99.90;;;;;;4922854;29;20195;-91
2021/10/12 05:14:19;;;;;;;8.37;2.10;;;13.90;99.90;;;;;;4923118;29;20235;-89
2021/10/12 05:16:49;;;;;;;9.50;2.50;;;13.90;99.90;;;;;;4921842;29;20556;-91
2021/10/12 05:19:15;;;;;;;10.87;2.63;;;13.90;99.90;;;;;;4910666;29;20216;-89
2021/10/12 05:21:44;;;;;;;17.20;2.63;;;13.90;99.90;;;;;;4903502;29;20204;-88
2021/10/12 05:24:11;;;;;;;10.60;2.37;;;13.90;99.90;;;;;;4903086;29;20627;-89
2021/10/12 05:26:37;;;;;;;15.97;2.90;;;13.90;99.90;;;;;;4903926;29;20208;-87
2021/10/12 05:29:04;;;;;;;9.80;2.33;;;13.90;99.90;;;;;;4903637;29;20204;-87
2021/10/12 05:31:31;;;;;;;10.77;2.53;;;13.90;99.90;;;;;;4904280;29;20582;-88
2021/10/12 05:33:58;;;;;;;11.13;2.33;;;14.00;99.90;;;;;;4903295;29;20251;-88
2021/10/12 05:36:25;;;;;;;13.37;2.23;;;14.00;99.90;;;;;;4903221;29;20242;-87
2021/10/12 05:38:53;;;;;;;13.40;2.17;;;14.00;99.90;;;;;;4903984;29;20199;-88
2021/10/12 05:41:20;;;;;;;15.10;2.63;;;14.00;99.90;;;;;;4908692;29;20600;-88
2021/10/12 05:43:47;;;;;;;12.70;3.27;;;14.00;99.90;;;;;;4905696;29;20204;-85
2021/10/12 05:46:14;;;;;;;13.60;2.23;;;14.10;99.90;;;;;;4903608;29;20247;-85
2021/10/12 05:48:41;;;;;;;8.20;2.53;;;14.00;99.90;;;;;;4902775;29;20203;-84
2021/10/12 05:51:09;;;;;;;10.83;3.30;;;14.00;99.90;;;;;;4916984;29;20289;-90
2021/10/12 05:53:43;;;;;;;15.13;2.23;;;14.00;99.90;;;;;;4922321;29;20249;-90
2021/10/12 05:56:14;;;;;;;9.77;2.53;;;14.00;99.90;;;;;;4921876;29;20556;-83
2021/10/12 05:58:43;;;;;;;12.27;2.70;;;13.90;99.90;;;;;;4921717;29;20592;-85
2021/10/12 06:01:11;;;;;;;10.80;2.27;;;13.90;99.90;;;;;;4905879;29;20239;-85
2021/10/12 06:03:38;;;;;;;15.13;2.50;;;13.90;99.90;;;;;;4903953;29;20207;-86
2021/10/12 06:06:05;;;;;;;9.07;2.73;;;13.90;99.90;;;;;;4902420;29;20199;-82
2021/10/12 06:08:34;;;;;;;10.67;2.30;;;13.90;99.90;;;;;;4903033;29;20235;-86
2021/10/12 06:11:02;;;;;;;10.47;2.53;;;13.90;99.90;;;;;;4904295;29;20211;-85
2021/10/12 06:13:31;;;;;;;10.70;2.50;;;13.90;99.90;;;;;;4912848;29;20207;-83
2021/10/12 06:15:58;;;;;;;14.63;2.67;;;13.90;99.90;;;;;;4923820;29;20218;-85
2021/10/12 06:18:25;;;;;;;9.07;2.17;;;13.90;99.90;;;;;;4920338;29;20225;-84
2021/10/12 06:20:53;;;;;;;10.60;2.83;;;13.90;99.90;;;;;;4921356;29;20214;-84
2021/10/12 06:23:20;;;;;;;12.87;2.50;;;13.80;99.90;;;;;;4917621;29;20222;-85
2021/10/12 06:25:47;;;;;;;12.43;2.50;;;13.80;99.90;;;;;;4923102;29;20226;-87
2021/10/12 06:28:16;;;;;;;10.50;2.60;;;13.80;99.90;;;;;;4921438;29;20206;-85
2021/10/12 06:30:44;;;;;;;11.93;2.70;;;13.80;99.90;;;;;;4917902;29;20214;-85
2021/10/12 06:33:12;;;;;;;13.47;2.13;;;13.80;99.90;;;;;;4902493;29;20226;-85
2021/10/12 06:35:38;;;;;;;13.63;2.97;;;13.80;99.90;;;;;;4902235;29;20232;-86
2021/10/12 06:38:06;;;;;;;7.83;2.03;;;13.90;99.90;;;;;;4902603;29;20265;-85
2021/10/12 06:40:35;;;;;;;9.97;2.50;;;13.90;99.90;;;;;;4902182;29;20203;-86
2021/10/12 06:43:02;;;;;;;6.80;2.03;;;14.00;99.90;;;;;;4901882;29;20207;-87
2021/10/12 06:45:30;;;;;;;10.00;2.10;;;14.00;99.90;;;;;;4902247;29;20258;-85
2021/10/12 06:47:58;;;;;;;8.63;2.00;;;14.00;99.90;;;;;;4901647;29;20376;-86
2021/10/12 06:50:25;;;;;;;12.93;2.70;;;14.10;99.90;;;;;;4901943;29;20192;-91
2021/10/12 06:52:52;;;;;;;12.37;2.87;;;14.10;99.90;;;;;;4901181;29;20199;-88
2021/10/12 06:55:19;;;;;;;15.60;3.13;;;14.10;99.90;;;;;;4901886;29;20611;-83
2021/10/12 06:57:47;;;;;;;11.90;3.20;;;14.10;99.90;;;;;;4901745;29;20234;-83
2021/10/12 07:00:15;;;;;;;12.63;2.40;;;14.10;99.90;;;;;;4912520;29;20218;-85
2021/10/12 07:02:42;;;;;;;10.27;2.17;;;14.20;99.90;;;;;;4920711;29;20198;-84
2021/10/12 07:05:13;;;;;;;11.30;2.60;;;14.10;99.90;;;;;;4921081;29;20210;-85
2021/10/12 07:07:40;;;;;;;14.60;3.13;;;14.10;99.90;;;;;;4915483;29;20229;-84
2021/10/12 07:10:09;;;;;;;14.97;2.90;;;14.10;99.90;;;;;;4901410;29;20207;-89
2021/10/12 07:12:36;;;;;;;14.13;3.73;;;14.10;99.90;;;;;;4902470;29;20203;-85
2021/10/12 07:15:04;;;;;;;20.83;3.67;;;14.00;99.90;;;;;;4903268;29;20214;-84
2021/10/12 07:17:30;;;;;;;12.77;3.13;;;14.10;99.90;;;;;;4901777;29;20234;-85
2021/10/12 07:19:57;;;;;;;12.37;3.37;;;14.10;99.90;;;;;;4901818;29;20639;-87
2021/10/12 07:22:26;;;;;;;10.73;3.33;;;14.10;99.90;;;;;;4902179;29;20207;-84
2021/10/12 07:24:53;;;;;;;11.07;2.87;;;14.20;99.90;;;;;;4901718;29;20204;-87
2021/10/12 07:27:21;;;;;;;14.57;3.03;;;14.30;99.90;;;;;;4901488;29;20199;-86
2021/10/12 07:29:50;;;;;;;11.73;2.50;;;14.30;99.90;;;;;;4901016;29;20222;-85
2021/10/12 07:32:17;;;;;;;7.80;2.47;;;14.40;99.90;;;;;;4901207;29;20311;-86
2021/10/12 07:34:44;;;;;;;11.43;2.20;;;14.40;99.90;;;;;;4901150;29;20235;-85
2021/10/12 07:37:11;;;;;;;9.17;2.30;;;14.40;99.90;;;;;;4901344;29;20231;-86
2021/10/12 07:39:41;;;;;;;12.87;2.10;;;14.40;99.90;;;;;;4900999;29;20207;-84
2021/10/12 07:42:08;;;;;;;10.87;2.10;;;14.40;99.90;;;;;;4901168;29;20346;-86
2021/10/12 07:44:37;;;;;;;17.43;3.20;;;14.40;99.90;;;;;;4900716;29;20199;-84
2021/10/12 07:47:04;;;;;;;9.30;2.80;;;14.50;99.90;;;;;;4900719;29;20203;-85
2021/10/12 07:49:32;;;;;;;11.20;2.40;;;14.50;99.90;;;;;;4900925;29;20223;-83
2021/10/12 07:51:59;;;;;;;12.80;2.50;;;14.50;99.90;;;;;;4908915;29;20207;-83
2021/10/12 07:54:37;;;;;;;12.93;2.27;;;14.60;99.90;;;;;;4919905;29;20199;-84
2021/10/12 07:57:05;;;;;;;16.20;2.60;;;14.60;99.90;;;;;;4919293;29;20230;-83
2021/10/12 07:59:32;;;;;;;13.67;2.77;;;14.60;99.90;;;;;;4919155;29;20217;-86
2021/10/12 08:01:59;;;;;;;13.07;3.03;;;14.60;99.90;;;;;;4920261;29;20210;-85
2021/10/12 08:04:25;;;;;;;12.10;2.70;;;14.60;99.90;;;;;;4919443;29;20202;-84
2021/10/12 08:06:52;;;;;;;11.50;2.47;;;14.60;99.90;;;;;;4919291;29;20211;-82
2021/10/12 08:09:19;;;;;;;8.87;2.20;;;14.50;99.90;;;;;;4919776;29;20620;-88
2021/10/12 08:11:46;;;;;;;8.57;2.07;;;14.40;99.90;;;;;;4926253;23;20200;-91
2021/10/12 08:14:18;;;;;;;13.07;2.35;;;14.30;99.90;;;;;;4919351;29;20619;-86
2021/10/12 08:16:45;;;;;;;15.47;2.50;;;14.20;99.90;;;;;;4919663;29;20229;-86
2021/10/12 08:19:12;;;;;;;9.10;2.40;;;14.10;99.90;;;;;;4919474;29;20290;-89
2021/10/12 08:21:39;;;;;;;12.63;3.00;;;14.10;99.90;;;;;;4919843;29;20195;-88
2021/10/12 08:24:06;;;;;;;13.60;3.90;;;14.10;99.90;;;;;;4919470;29;20203;-83
2021/10/12 08:26:33;;;;;;;10.90;2.20;;;14.10;99.90;;;;;;4919489;29;20206;-86
2021/10/12 08:29:01;;;;;;;10.23;3.27;;;14.00;99.90;;;;;;4919692;29;20202;-86
2021/10/12 08:31:29;;;;;;;15.57;3.13;;;13.90;99.90;;;;;;4918888;29;20217;-88
2021/10/12 08:33:56;;;;;;;11.83;2.57;;;13.90;99.90;;;;;;4919123;29;20195;-86
2021/10/12 08:36:23;;;;;;;13.30;3.00;;;13.90;99.90;;;;;;4919469;29;20211;-86
2021/10/12 08:38:53;;;;;;;13.47;2.40;;;13.90;99.90;;;;;;4919240;29;20230;-84
2021/10/12 08:41:25;;;;;;;8.83;2.20;;;13.90;99.90;;;;;;4909319;29;20600;-81
2021/10/12 08:43:55;;;;;;;8.87;1.83;;;13.90;99.90;;;;;;4900595;29;20559;-83
2021/10/12 08:46:26;;;;;;;9.53;1.80;;;13.90;99.90;;;;;;4905021;29;20298;-85
2021/10/12 08:48:56;;;;;;;9.60;1.80;;;14.00;99.90;;;;;;4901128;29;20200;-86
2021/10/12 08:51:22;;;;;;;7.73;1.27;;;14.00;99.90;;;;;;4900482;29;20215;-82
2021/10/12 08:53:49;;;;;;;9.20;1.83;;;14.00;99.90;;;;;;4899503;29;20246;-82
2021/10/12 08:56:16;;;;;;;9.60;1.90;;;14.00;99.90;;;;;;4899754;29;20212;-85
2021/10/12 08:58:43;;;;;;;9.00;1.60;;;14.00;99.90;;;;;;4899615;29;20230;-81
2021/10/12 09:01:12;;;;;;;8.87;2.20;;;14.00;99.90;;;;;;4899991;29;20200;-81
2021/10/12 09:06:30;;;;;;;6.40;1.77;;;14.10;99.90;;;;;;4897218;29;20556;-82
2021/10/12 09:08:59;;;;;;;8.20;1.70;;;14.20;99.90;;;;;;4899612;29;20223;-83
2021/10/12 09:11:28;;;;;;;8.10;1.53;;;14.10;99.90;;;;;;4900125;29;20211;-82
2021/10/12 09:14:01;;;;;;;6.07;1.30;;;14.10;99.90;;;;;;4900052;29;20565;-83
2021/10/12 09:16:32;;;;;;;7.03;1.90;;;14.10;99.90;;;;;;4901929;29;20283;-83
2021/10/12 09:19:01;;;;;;;5.53;1.77;;;14.10;99.90;;;;;;4903373;29;20230;-86
2021/10/12 09:21:31;;;;;;;9.17;1.73;;;14.20;99.90;;;;;;4903223;29;20202;-83
2021/10/12 09:24:04;;;;;;;5.90;1.87;;;14.20;99.90;;;;;;4903797;29;20220;-87
2021/10/12 09:26:34;;;;;;;7.57;1.83;;;14.20;99.90;;;;;;4903756;29;20258;-87
2021/10/12 09:29:03;;;;;;;6.97;1.10;;;14.10;99.90;;;;;;4903043;29;20203;-89
2021/10/12 09:31:34;;;;;;;4.97;1.17;;;14.00;99.90;;;;;;4903750;29;20218;-87
2021/10/12 09:34:04;;;;;;;5.40;1.30;;;14.00;99.90;;;;;;4903353;29;20199;-86
2021/10/12 09:36:35;;;;;;;9.05;2.65;;;13.90;99.90;;;;;;4903007;29;20262;-86
2021/10/12 09:39:03;;;;;;;4.47;1.10;;;14.00;99.90;;;;;;4903762;29;20227;-88
2021/10/12 09:41:30;;;;;;;3.10;1.23;;;14.00;99.90;;;;;;4921584;29;20242;-85
2021/10/12 09:44:11;;;;;;;5.80;1.37;;;13.90;99.90;;;;;;4922436;29;20210;-89
2021/10/12 09:46:40;;;;;;;2.37;1.10;;;13.90;99.90;;;;;;4922396;29;20234;-84
2021/10/12 09:49:26;;;;;;;5.90;1.10;;;13.90;99.90;;;;;;4918991;29;20206;-87
2021/10/12 09:52:02;;;;;;;2.97;0.80;;;13.90;99.90;;;;;;4902728;29;20203;-82
2021/10/12 09:54:30;;;;;;;4.05;1.08;;;13.90;99.90;;;;;;4903219;29;20202;-82
2021/10/12 09:56:59;;;;;;;4.03;0.83;;;14.00;99.90;;;;;;4903464;29;20223;-84
2021/10/12 09:59:26;;;;;;;3.20;1.20;;;14.00;99.90;;;;;;4903722;29;20214;-88
2021/10/12 10:01:55;;;;;;;3.77;1.53;;;14.10;99.90;;;;;;4904701;29;20600;-87
2021/10/12 10:04:23;;;;;;;4.10;1.07;;;14.10;99.90;;;;;;4903444;29;20255;-85
2021/10/12 10:06:51;;;;;;;2.70;0.90;;;14.30;99.90;;;;;;4903113;29;20596;-83
2021/10/12 10:09:23;;;;;;;2.83;0.77;;;14.30;99.90;;;;;;4902755;29;20531;-84
2021/10/12 10:11:51;;;;;;;3.43;0.80;;;14.30;99.90;;;;;;4902672;29;20207;-88
2021/10/12 10:14:19;;;;;;;2.23;1.13;;;14.40;99.90;;;;;;4902742;29;20233;-90
2021/10/12 10:16:49;;;;;;;3.47;0.80;;;14.40;99.90;;;;;;4904467;29;20207;-83
2021/10/12 10:19:18;;;;;;;3.10;1.00;;;14.40;99.90;;;;;;4903880;29;20237;-83
2021/10/12 10:21:49;;;;;;;2.07;0.53;;;14.40;99.90;;;;;;4903216;29;20215;-84
2021/10/12 10:24:38;;;;;;;2.17;0.60;;;14.50;99.90;;;;;;4902081;29;20207;-84
2021/10/12 10:27:07;;;;;;;3.47;0.80;;;14.40;99.90;;;;;;4901896;29;20230;-84
2021/10/12 10:29:37;;;;;;;4.57;0.77;;;14.40;99.90;;;;;;4914857;29;20215;-82
2021/10/12 10:32:15;;;;;;;1.40;0.57;;;14.50;99.90;;;;;;4916439;29;20211;-83
2021/10/12 10:34:43;;;;;;;3.43;0.90;;;14.70;99.90;;;;;;4902371;29;20199;-83
2021/10/12 10:37:29;;;;;;;4.83;1.37;;;14.90;99.90;;;;;;4902136;29;20203;-87
2021/10/12 10:40:23;;;;;;;2.40;0.70;;;14.90;99.90;;;;;;4901844;29;20191;-85
2021/10/12 10:43:01;;;;;;;2.72;0.90;;;14.90;99.90;;;;;;4902493;29;20211;-85
2021/10/12 10:45:44;;;;;;;3.10;0.60;;;14.90;99.90;;;;;;4902195;29;20207;-85
2021/10/12 10:48:13;;;;;;;3.50;0.70;;;14.90;99.90;;;;;;4900357;29;20211;-84
2021/10/12 10:50:40;;;;;;;3.40;0.67;;;15.10;99.90;;;;;;4916994;29;20207;-85
2021/10/12 10:53:10;;;;;;;3.43;0.70;;;15.10;99.90;;;;;;4908816;29;20211;-84
2021/10/12 10:55:40;;;;;;;3.33;1.10;;;15.20;99.90;;;;;;4919911;29;20207;-88
2021/10/12 10:58:10;;;;;;;3.70;1.20;;;15.10;99.90;;;;;;4920649;29;20230;-87
2021/10/12 11:00:41;;;;;;;3.30;1.10;;;15.20;99.90;;;;;;4919969;29;20262;-81
2021/10/12 11:03:09;;;;;;;3.17;0.70;;;15.00;99.90;;;;;;4901536;29;20219;-84
2021/10/12 11:05:50;;;;;;;2.80;0.97;;;14.80;99.90;;;;;;4901609;29;20286;-83
2021/10/12 11:08:19;;;;;;;4.93;1.07;;;14.60;99.90;;;;;;4901362;29;20230;-84
2021/10/12 11:10:50;;;;;;;1.90;0.63;;;14.50;99.90;;;;;;4901536;29;20295;-84
2021/10/12 11:13:37;;;;;;;3.27;1.23;;;14.50;99.90;;;;;;4901338;29;20253;-83
2021/10/12 11:16:06;;;;;;;3.63;0.88;;;14.50;99.90;;;;;;4901303;29;20290;-81
2021/10/12 11:18:33;;;;;;;4.80;1.17;;;14.70;99.90;;;;;;4902318;29;20302;-84
2021/10/12 11:21:03;;;;;;;3.05;0.80;;;14.80;99.90;;;;;;4900741;29;20214;-85
2021/10/12 11:23:32;;;;;;;3.15;0.88;;;15.00;99.90;;;;;;4901394;29;20267;-87
2021/10/12 11:26:05;;;;;;;5.82;0.77;;;15.20;99.90;;;;;;4900989;29;20238;-84
2021/10/12 11:28:33;;;;;;;5.70;1.10;;;15.20;99.90;;;;;;4901180;29;20211;-89
2021/10/12 11:31:04;;;;;;;3.25;0.95;;;15.30;99.90;;;;;;4901456;29;20204;-86
2021/10/12 11:33:39;;;;;;;3.72;1.05;;;15.20;99.90;;;;;;4901211;29;20222;-84
2021/10/12 11:36:09;;;;;;;3.57;0.70;;;15.10;99.90;;;;;;4900918;29;20203;-86
2021/10/12 11:38:38;;;;;;;4.37;0.90;;;15.00;99.90;;;;;;4900511;29;20222;-84
2021/10/12 11:41:32;;;;;;;4.60;1.00;;;14.80;99.90;;;;;;4900832;29;20211;-85
2021/10/12 11:44:02;;;;;;;4.65;1.00;;;14.70;99.90;;;;;;4887072;29;20218;-89
2021/10/12 11:46:32;;;;;;;3.60;1.00;;;14.70;99.90;;;;;;4901061;29;20219;-87
2021/10/12 11:49:09;;;;;;;5.67;0.93;;;14.70;99.90;;;;;;4902202;29;20613;-86
2021/10/12 11:51:37;;;;;;;7.15;1.13;;;14.80;99.90;;;;;;4901082;29;20198;-84
2021/10/12 11:54:03;;;;;;;6.07;1.20;;;14.90;99.90;;;;;;4908442;29;20226;-85
2021/10/12 11:56:35;;;;;;;2.67;1.05;;;15.10;99.90;;;;;;4919446;29;20608;-86
2021/10/12 11:59:04;;;;;;;5.22;1.15;;;15.10;99.90;;;;;;4919864;29;20222;-83
2021/10/12 12:01:34;;;;;;;5.38;1.48;;;15.10;99.90;;;;;;4918579;29;20210;-87
2021/10/12 12:04:02;;;;;;;5.80;1.35;;;15.10;99.90;;;;;;4900578;29;20294;-85
2021/10/12 12:06:32;;;;;;;5.67;1.00;;;15.20;99.90;;;;;;4910217;29;20225;-87
2021/10/12 12:09:02;;;;;;;4.43;1.45;;;15.10;99.90;;;;;;4919519;29;20218;-84
2021/10/12 12:11:32;;;;;;;3.90;1.20;;;15.10;99.90;;;;;;4919117;29;20210;-84
2021/10/12 12:14:01;;;;;;;4.50;1.00;;;15.10;99.90;;;;;;4919294;29;20245;-83
2021/10/12 12:16:33;;;;;;;4.10;0.80;;;15.10;99.90;;;;;;4909115;29;20218;-82
2021/10/12 12:19:00;;;;;;;6.68;1.20;;;15.10;99.90;;;;;;4900311;29;20279;-83
2021/10/12 12:21:30;;;;;;;2.40;0.70;;;15.10;99.90;;;;;;4900341;29;20218;-87
2021/10/12 12:23:59;;;;;;;5.53;1.10;;;15.20;99.90;;;;;;4901042;29;20216;-86
2021/10/12 12:26:28;;;;;;;2.67;1.13;;;15.30;99.90;;;;;;4899979;29;20609;-86
2021/10/12 12:29:15;;;;;;;4.57;0.90;;;15.30;99.90;;;;;;4900754;29;20508;-85
2021/10/12 12:31:48;;;;;;;4.47;0.88;;;15.40;99.90;;;;;;4900092;29;20215;-85
2021/10/12 12:34:25;;;;;;;2.00;0.70;;;15.30;99.90;;;;;;4900434;29;20214;-82
2021/10/12 12:36:52;;;;;;;4.13;0.80;;;15.30;99.90;;;;;;4900286;29;20206;-86
2021/10/12 12:39:19;;;;;;;5.43;0.80;;;15.20;99.90;;;;;;4900564;29;20235;-85
2021/10/12 12:41:47;;;;;;;6.10;1.02;;;15.20;99.90;;;;;;4900398;29;20199;-84
2021/10/12 12:44:24;;;;;;;3.95;0.70;;;15.30;99.90;;;;;;4900422;29;20504;-86
2021/10/12 12:46:59;;;;;;;3.05;0.82;;;15.20;99.90;;;;;;4900442;29;20549;-83
2021/10/12 12:49:26;;;;;;;6.18;1.10;;;15.00;99.90;;;;;;4900279;29;20210;-84
2021/10/12 12:51:53;;;;;;;1.33;0.60;;;15.00;99.90;;;;;;4903857;29;20207;-87